createdAt,value
2019-04-06T00:00:59.310Z,36.75
2019-04-06T00:03:38.349Z,37.83
2019-04-06T00:06:23.370Z,37.78
2019-04-06T00:09:01.937Z,35.33
2019-04-06T00:11:40.351Z,37.42
2019-04-06T00:14:18.048Z,38.28
2019-04-06T00:16:55.745Z,35.03
2019-04-06T00:19:33.285Z,37.13
2019-04-06T00:22:11.025Z,35.88
2019-04-06T00:24:48.970Z,32.85
2019-04-06T00:27:26.659Z,36.70
2019-04-06T00:30:04.541Z,36.63
2019-04-06T00:33:03.571Z,35.55
2019-04-06T00:35:41.433Z,34.45
2019-04-06T00:38:19.232Z,34.35
2019-04-06T00:40:57.244Z,33.70
2019-04-06T00:43:44.657Z,35.85
2019-04-06T00:46:24.465Z,34.50
2019-04-06T00:49:02.997Z,36.08
2019-04-06T00:51:41.198Z,35.15
2019-04-06T00:54:19.012Z,33.73
2019-04-06T00:56:59.878Z,31.25
2019-04-06T00:59:38.047Z,29.07
2019-04-06T01:02:17.863Z,34.38
2019-04-06T01:04:56.748Z,35.23
2019-04-06T01:07:48.056Z,33.92
2019-04-06T01:10:47.306Z,34.15
2019-04-06T01:13:26.365Z,35.03
2019-04-06T01:16:05.849Z,35.60
2019-04-06T01:18:44.826Z,36.03
2019-04-06T01:21:23.616Z,37.53
2019-04-06T01:24:02.148Z,37.42
2019-04-06T01:26:40.075Z,36.93
2019-04-06T01:29:18.798Z,36.23
2019-04-06T01:32:06.616Z,37.38
2019-04-06T01:34:50.729Z,38.40
2019-04-06T01:37:32.309Z,36.80
2019-04-06T01:42:51.039Z,38.98
2019-04-06T01:45:29.203Z,39.00
2019-04-06T01:48:08.370Z,38.70
2019-04-06T01:50:47.549Z,37.95
2019-04-06T01:53:25.917Z,39.67
2019-04-06T01:56:18.352Z,40.10
2019-04-06T01:58:51.808Z,37.93
2019-04-06T02:01:47.563Z,39.53
2019-04-06T02:04:26.884Z,35.80
2019-04-06T02:07:11.044Z,36.95
2019-04-06T02:09:49.294Z,36.88
2019-04-06T02:12:28.753Z,36.17
2019-04-06T02:15:06.707Z,35.60
2019-04-06T02:17:45.240Z,38.85
2019-04-06T02:20:22.870Z,40.73
2019-04-06T02:23:02.889Z,40.85
2019-04-06T02:25:42.884Z,39.38
2019-04-06T02:28:21.477Z,62.70
2019-04-06T02:31:11.045Z,42.13
2019-04-06T02:34:06.080Z,40.70
2019-04-06T02:37:12.602Z,44.23
2019-04-06T02:40:16.023Z,39.95
2019-04-06T02:42:57.839Z,41.83
2019-04-06T02:45:39.630Z,41.92
2019-04-06T02:48:20.413Z,42.45
2019-04-06T02:51:01.265Z,44.33
2019-04-06T02:53:41.412Z,49.60
2019-04-06T02:56:22.981Z,48.75
2019-04-06T02:59:02.344Z,48.25
2019-04-06T03:01:46.083Z,47.95
2019-04-06T03:04:24.582Z,47.75
2019-04-06T03:07:03.622Z,42.70
2019-04-06T03:09:47.677Z,43.38
2019-04-06T03:12:30.282Z,42.20
2019-04-06T03:15:09.885Z,40.45
2019-04-06T03:17:48.375Z,39.90
2019-04-06T03:20:27.921Z,41.15
2019-04-06T03:23:07.712Z,40.98
2019-04-06T03:25:45.674Z,39.95
2019-04-06T03:28:25.219Z,40.67
2019-04-06T03:31:07.395Z,40.58
2019-04-06T03:33:45.283Z,40.35
2019-04-06T03:36:23.273Z,40.88
2019-04-06T03:39:07.369Z,46.42
2019-04-06T03:41:48.562Z,41.80
2019-04-06T03:44:26.354Z,36.03
2019-04-06T03:47:07.502Z,42.25
2019-04-06T03:49:46.055Z,44.60
2019-04-06T03:52:23.685Z,37.05
2019-04-06T03:55:03.398Z,34.13
2019-04-06T03:57:58.347Z,34.00
2019-04-06T04:00:36.413Z,41.18
2019-04-06T04:03:19.034Z,27.73
2019-04-06T04:06:23.374Z,33.45
2019-04-06T04:09:03.694Z,33.20
2019-04-06T04:11:43.283Z,30.40
2019-04-06T04:14:22.096Z,38.40
2019-04-06T04:17:10.433Z,35.25
2019-04-06T04:19:50.480Z,35.10
2019-04-06T04:22:34.948Z,26.57
2019-04-06T04:25:14.727Z,43.35
2019-04-06T04:27:58.295Z,50.30
2019-04-06T04:30:40.381Z,39.38
2019-04-06T04:33:29.476Z,46.50
2019-04-06T04:36:18.365Z,51.25
2019-04-06T04:39:09.099Z,34.53
2019-04-06T04:42:00.328Z,40.37
2019-04-06T04:44:38.279Z,14.38
2019-04-06T04:47:16.803Z,31.33
2019-04-06T04:49:56.279Z,23.07
2019-04-06T04:52:36.274Z,10.70
2019-04-06T04:55:18.138Z,47.62
2019-04-06T04:57:58.427Z,42.20
2019-04-06T05:00:37.629Z,23.70
2019-04-06T05:03:16.873Z,45.60
2019-04-06T05:06:01.335Z,42.27
2019-04-06T05:08:42.222Z,38.83
2019-04-06T05:11:20.920Z,24.80
2019-04-06T05:14:28.406Z,50.58
2019-04-06T05:17:06.599Z,43.83
2019-04-06T05:19:52.415Z,29.75
2019-04-06T05:22:46.748Z,29.00
2019-04-06T05:25:27.946Z,35.95
2019-04-06T05:28:11.213Z,16.65
2019-04-06T05:30:50.200Z,48.95
2019-04-06T05:33:28.249Z,30.92
2019-04-06T05:36:09.030Z,22.93
2019-04-06T05:38:50.133Z,14.63
2019-04-06T05:41:34.878Z,37.30
2019-04-06T05:44:15.644Z,18.65
2019-04-06T05:46:57.588Z,40.35
2019-04-06T05:49:45.303Z,23.45
2019-04-06T05:52:22.108Z,22.15
2019-04-06T05:55:00.307Z,20.20
2019-04-06T05:59:20.610Z,11.65
2019-04-06T06:02:04.889Z,21.48
2019-04-06T06:04:46.388Z,22.90
2019-04-06T06:07:26.768Z,23.60
2019-04-06T06:10:07.911Z,20.65
2019-04-06T06:12:49.825Z,14.15
2019-04-06T06:15:29.170Z,15.58
2019-04-06T06:18:07.027Z,22.30
2019-04-06T06:20:48.389Z,32.23
2019-04-06T06:23:47.646Z,41.67
2019-04-06T06:26:30.016Z,46.23
2019-04-06T06:29:10.271Z,25.77
2019-04-06T06:31:48.233Z,36.97
2019-04-06T06:34:26.054Z,21.55
2019-04-06T06:37:07.545Z,22.55
2019-04-06T06:39:57.047Z,35.50
2019-04-06T06:42:38.791Z,28.40
2019-04-06T06:45:20.953Z,42.45
2019-04-06T06:50:39.258Z,33.95
2019-04-06T06:53:20.242Z,28.87
2019-04-06T06:56:00.433Z,46.68
2019-04-06T06:58:41.014Z,44.30
2019-04-06T07:01:18.867Z,15.37
2019-04-06T07:03:56.399Z,29.90
2019-04-06T07:06:37.590Z,34.43
2019-04-06T07:09:16.766Z,37.63
2019-04-06T07:11:55.370Z,30.35
2019-04-06T07:14:34.046Z,25.15
2019-04-06T07:17:13.857Z,22.75
2019-04-06T07:20:05.276Z,18.95
2019-04-06T07:22:44.220Z,38.53
2019-04-06T07:25:23.761Z,21.30
2019-04-06T07:28:03.498Z,26.35
2019-04-06T07:30:41.730Z,22.02
2019-04-06T07:33:20.039Z,30.30
2019-04-06T07:35:58.199Z,21.62
2019-04-06T07:38:38.280Z,16.00
2019-04-06T07:41:16.581Z,19.50
2019-04-06T07:43:54.769Z,38.38
2019-04-06T07:46:34.249Z,18.48
2019-04-06T07:49:19.683Z,47.93
2019-04-06T07:51:57.733Z,29.85
2019-04-06T07:54:38.203Z,48.60
2019-04-06T07:57:18.054Z,35.87
2019-04-06T07:59:59.631Z,46.55
2019-04-06T08:02:39.049Z,31.40
2019-04-06T08:05:17.715Z,39.18
2019-04-06T08:08:03.488Z,29.27
2019-04-06T08:10:42.024Z,37.90
2019-04-06T08:13:34.341Z,37.23
2019-04-06T08:16:13.154Z,43.30
2019-04-06T08:18:54.267Z,46.92
2019-04-06T08:21:41.214Z,19.27
2019-04-06T08:24:32.788Z,46.18
2019-04-06T08:27:10.194Z,39.35
2019-04-06T08:29:54.115Z,42.78
2019-04-06T08:32:45.413Z,25.17
2019-04-06T08:38:17.033Z,48.83
2019-04-06T08:41:01.825Z,58.17
2019-04-06T08:43:40.663Z,55.28
2019-04-06T08:46:29.020Z,54.48
2019-04-06T08:49:10.234Z,49.42
2019-04-06T08:51:49.785Z,48.77
2019-04-06T08:54:34.150Z,55.73
2019-04-06T08:57:12.973Z,55.05
2019-04-06T08:59:55.299Z,53.73
2019-04-06T09:02:34.401Z,34.55
2019-04-06T09:05:14.727Z,49.63
2019-04-06T09:07:57.150Z,52.60
2019-04-06T09:10:59.653Z,51.37
2019-04-06T09:13:40.341Z,48.55
2019-04-06T09:16:17.497Z,45.90
2019-04-06T09:18:59.085Z,50.50
2019-04-06T09:21:42.105Z,49.33
2019-04-06T09:24:24.301Z,50.23
2019-04-06T09:27:02.664Z,42.20
2019-04-06T09:29:44.786Z,48.20
2019-04-06T09:32:24.343Z,43.42
2019-04-06T09:35:03.970Z,45.48
2019-04-06T09:37:41.860Z,44.70
2019-04-06T09:40:34.914Z,38.28
2019-04-06T09:43:12.521Z,45.70
2019-04-06T09:46:14.668Z,27.22
2019-04-06T09:49:06.751Z,48.90
2019-04-06T09:52:04.133Z,45.63
2019-04-06T09:55:00.281Z,49.40
2019-04-06T09:57:45.822Z,52.40
2019-04-06T10:00:53.258Z,45.92
2019-04-06T10:03:51.224Z,46.13
2019-04-06T10:06:47.593Z,45.45
2019-04-06T10:09:50.620Z,45.00
2019-04-06T10:14:21.343Z,47.80
2019-04-06T10:17:32.088Z,34.65
2019-04-06T10:20:35.444Z,55.12
2019-04-06T10:23:41.027Z,56.83
2019-04-06T10:26:40.285Z,58.63
2019-04-06T10:29:47.678Z,56.73
2019-04-06T10:32:39.998Z,63.65
2019-04-06T10:35:50.000Z,54.90
2019-04-06T10:38:48.681Z,54.48
2019-04-06T10:41:45.461Z,58.02
2019-04-06T10:44:55.261Z,61.35
2019-04-06T10:47:56.160Z,49.10
2019-04-06T10:50:54.181Z,57.23
2019-04-06T10:53:56.712Z,61.35
2019-04-06T11:00:00.820Z,34.67
2019-04-06T11:02:47.981Z,46.68
2019-04-06T11:05:34.162Z,55.40
2019-04-06T11:08:42.967Z,56.28
2019-04-06T11:11:44.000Z,51.15
2019-04-06T11:14:38.331Z,51.02
2019-04-06T11:17:39.726Z,54.73
2019-04-06T11:20:40.404Z,57.43
2019-04-06T11:24:10.539Z,57.50
2019-04-06T11:27:11.011Z,61.20
2019-04-06T11:30:13.550Z,57.50
2019-04-06T11:33:05.450Z,61.92
2019-04-06T11:35:59.744Z,54.53
2019-04-06T11:39:06.165Z,67.78
2019-04-06T11:42:01.375Z,55.45
2019-04-06T11:45:08.664Z,63.13
2019-04-06T11:48:04.479Z,62.75
2019-04-06T11:50:54.460Z,54.70
2019-04-06T11:54:02.378Z,54.53
2019-04-06T11:57:03.357Z,51.25
2019-04-06T11:59:53.049Z,59.75
2019-04-06T12:02:56.006Z,47.62
2019-04-06T12:06:11.880Z,28.55
2019-04-06T12:09:06.481Z,42.70
2019-04-06T12:12:03.046Z,55.70
2019-04-06T12:14:58.425Z,55.40
2019-04-06T12:18:03.368Z,65.50
2019-04-06T12:20:53.007Z,76.25
2019-04-06T12:24:27.476Z,61.65
2019-04-06T12:36:18.806Z,45.85
2019-04-06T12:39:20.342Z,54.00
2019-04-06T12:42:35.048Z,40.23
2019-04-06T12:45:29.942Z,43.48
2019-04-06T12:48:46.867Z,47.95
2019-04-06T12:51:52.499Z,42.55
2019-04-06T12:54:51.385Z,38.55
2019-04-06T12:57:48.399Z,44.63
2019-04-06T13:00:54.395Z,42.95
2019-04-06T13:03:52.380Z,31.02
2019-04-06T13:06:47.429Z,46.23
2019-04-06T13:09:46.417Z,49.83
2019-04-06T13:12:42.308Z,28.25
2019-04-06T13:16:40.975Z,32.60
2019-04-06T13:19:23.518Z,44.05
2019-04-06T13:21:58.965Z,42.67
2019-04-06T13:24:57.660Z,28.07
2019-04-06T13:27:36.433Z,39.20
2019-04-06T13:30:25.547Z,44.27
2019-04-06T13:33:02.561Z,33.18
2019-04-06T13:35:37.970Z,53.02
2019-04-06T13:38:16.103Z,46.30
2019-04-06T13:41:09.117Z,52.10
2019-04-06T13:43:50.256Z,52.33
2019-04-06T13:46:34.163Z,53.73
2019-04-06T13:49:11.060Z,53.92
2019-04-06T13:52:00.701Z,52.60
2019-04-06T13:54:40.039Z,55.35
2019-04-06T13:57:19.882Z,53.78
2019-04-06T14:00:19.944Z,54.90
2019-04-06T14:02:58.968Z,51.15
2019-04-06T14:05:34.506Z,55.38
2019-04-06T14:08:20.242Z,52.48
2019-04-06T14:11:12.078Z,53.45
2019-04-06T14:14:08.375Z,50.28
2019-04-06T14:17:00.503Z,49.15
2019-04-06T14:19:40.403Z,50.15
2019-04-06T14:22:25.988Z,51.20
2019-04-06T14:25:17.397Z,47.75
2019-04-06T14:28:03.513Z,45.40
2019-04-06T14:30:43.899Z,47.20
2019-04-06T14:33:37.505Z,50.73
2019-04-06T14:36:12.897Z,48.17
2019-04-06T14:38:59.956Z,45.65
2019-04-06T14:41:37.417Z,48.13
2019-04-06T14:44:13.809Z,45.70
2019-04-06T14:46:53.496Z,47.08
2019-04-06T14:49:34.615Z,49.30
2019-04-06T14:52:16.014Z,49.63
2019-04-06T14:54:52.403Z,49.85
2019-04-06T14:57:27.335Z,50.52
2019-04-06T15:00:09.107Z,54.03
2019-04-06T15:02:59.657Z,53.00
2019-04-06T15:05:52.016Z,58.02
2019-04-06T15:08:44.136Z,55.05
2019-04-06T15:11:25.187Z,55.83
2019-04-06T15:14:06.856Z,55.45
2019-04-06T15:16:59.215Z,56.02
2019-04-06T15:19:40.489Z,55.12
2019-04-06T15:22:19.878Z,54.10
2019-04-06T15:25:04.756Z,53.15
2019-04-06T15:30:44.931Z,53.68
2019-04-06T15:33:36.467Z,54.18
2019-04-06T15:36:18.483Z,53.38
2019-04-06T15:39:10.558Z,53.85
2019-04-06T15:44:44.355Z,54.08
2019-04-06T15:47:28.705Z,53.33
2019-04-06T15:50:07.728Z,53.33
2019-04-06T15:52:43.941Z,55.38
2019-04-06T15:55:31.690Z,48.70
2019-04-06T15:58:23.506Z,51.63
2019-04-06T16:01:17.338Z,52.83
2019-04-06T16:03:59.388Z,49.95
2019-04-06T16:09:20.372Z,49.88
2019-04-06T16:12:08.013Z,51.53
2019-04-06T16:14:52.334Z,52.78
2019-04-06T16:17:31.278Z,45.88
2019-04-06T16:20:06.292Z,45.17
2019-04-06T16:22:47.604Z,49.95
2019-04-06T16:25:24.269Z,48.05
2019-04-06T16:28:18.820Z,48.58
2019-04-06T16:31:08.127Z,48.83
2019-04-06T16:33:45.927Z,48.02
2019-04-06T16:36:24.082Z,48.42
2019-04-06T16:39:16.262Z,48.87
2019-04-06T16:42:10.777Z,47.65
2019-04-06T16:44:56.105Z,47.58
2019-04-06T16:47:37.977Z,46.85
2019-04-06T16:53:00.574Z,47.50
2019-04-06T16:56:00.716Z,46.10
2019-04-06T16:58:42.436Z,46.20
2019-04-06T17:01:34.231Z,47.98
2019-04-06T17:04:09.709Z,45.90
2019-04-06T17:06:45.454Z,44.73
2019-04-06T17:09:37.085Z,46.63
2019-04-06T17:12:28.816Z,43.02
2019-04-06T17:15:10.602Z,44.58
2019-04-06T17:17:52.233Z,45.67
2019-04-06T17:20:49.639Z,46.90
2019-04-06T17:23:32.478Z,46.58
2019-04-06T17:26:11.915Z,44.63
2019-04-06T17:29:03.746Z,47.03
2019-04-06T17:31:38.989Z,46.00
2019-04-06T17:34:17.117Z,45.75
2019-04-06T17:36:58.306Z,44.53
2019-04-06T17:39:39.344Z,45.38
2019-04-06T17:42:17.914Z,46.08
2019-04-06T17:45:10.379Z,45.05
2019-04-06T17:47:55.082Z,45.73
2019-04-06T17:50:52.029Z,46.25
2019-04-06T17:53:39.151Z,44.83
2019-04-06T17:56:23.715Z,43.13
2019-04-06T17:59:08.985Z,44.88
2019-04-06T18:01:43.913Z,44.65
2019-04-06T18:04:25.445Z,46.50
2019-04-06T18:07:17.451Z,46.23
2019-04-06T18:09:59.796Z,43.02
2019-04-06T18:12:34.987Z,44.40
2019-04-06T18:15:13.215Z,46.58
2019-04-06T18:17:48.200Z,45.88
2019-04-06T18:20:23.201Z,44.93
2019-04-06T18:22:57.365Z,46.53
2019-04-06T18:25:31.521Z,42.75
2019-04-06T18:28:05.386Z,45.17
2019-04-06T18:30:39.761Z,41.92
2019-04-06T18:33:15.492Z,42.83
2019-04-06T18:35:52.917Z,45.52
2019-04-06T18:38:35.412Z,43.45
2019-04-06T18:41:09.548Z,45.08
2019-04-06T18:43:44.218Z,47.43
2019-04-06T18:46:24.179Z,45.38
2019-04-06T18:49:04.293Z,44.13
2019-04-06T18:51:43.303Z,46.85
2019-04-06T18:54:18.900Z,46.53
2019-04-06T18:56:55.748Z,43.25
2019-04-06T18:59:30.705Z,45.30
2019-04-06T19:02:04.487Z,43.60
2019-04-06T19:04:39.775Z,47.00
2019-04-06T19:07:15.320Z,47.25
2019-04-06T19:09:49.758Z,48.60
2019-04-06T19:12:23.758Z,45.98
2019-04-06T19:15:00.682Z,45.90
2019-04-06T19:17:35.197Z,45.78
2019-04-06T19:20:10.461Z,46.48
2019-04-06T19:22:44.425Z,47.13
2019-04-06T19:25:18.938Z,45.20
2019-04-06T19:27:56.862Z,47.15
2019-04-06T19:30:31.525Z,47.15
2019-04-06T19:33:05.655Z,46.88
2019-04-06T19:35:39.795Z,45.30
2019-04-06T19:38:13.555Z,45.78
2019-04-06T19:40:48.458Z,45.85
2019-04-06T19:43:22.949Z,46.30
2019-04-06T19:45:57.724Z,45.23
2019-04-06T19:48:31.985Z,46.55
2019-04-06T19:51:07.058Z,45.95
2019-04-06T19:53:41.262Z,46.60
2019-04-06T19:56:15.587Z,46.50
2019-04-06T19:58:49.328Z,45.30
2019-04-06T20:01:24.215Z,47.23
2019-04-06T20:03:58.062Z,46.28
2019-04-06T20:06:32.957Z,47.80
2019-04-06T20:09:08.534Z,46.55
2019-04-06T20:11:42.853Z,47.80
2019-04-06T20:14:16.659Z,46.88
2019-04-06T20:16:51.294Z,46.83
2019-04-06T20:19:25.659Z,46.10
2019-04-06T20:21:59.633Z,45.98
2019-04-06T20:24:34.578Z,46.70
2019-04-06T20:27:08.650Z,46.70
2019-04-06T20:29:42.369Z,48.95
2019-04-06T20:32:16.636Z,50.10
2019-04-06T20:34:50.532Z,49.67
2019-04-06T20:37:24.330Z,48.52
2019-04-06T20:39:58.636Z,48.87
2019-04-06T20:42:32.446Z,47.73
2019-04-06T20:45:06.748Z,50.08
2019-04-06T20:47:40.332Z,47.58
2019-04-06T20:50:14.544Z,48.78
2019-04-06T20:52:48.181Z,48.95
2019-04-06T20:55:22.161Z,47.93
2019-04-06T20:57:56.990Z,48.83
2019-04-06T21:00:31.518Z,49.48
2019-04-06T21:03:06.449Z,50.03
2019-04-06T21:05:40.688Z,50.63
2019-04-06T21:08:14.552Z,49.18
2019-04-06T21:10:48.643Z,51.63
2019-04-06T21:13:22.510Z,48.52
2019-04-06T21:15:56.734Z,49.05
2019-04-06T21:18:30.282Z,52.45
2019-04-06T21:21:04.240Z,49.58
2019-04-06T21:23:38.531Z,51.92
2019-04-06T21:26:26.281Z,55.60
2019-04-06T21:29:01.567Z,58.73
2019-04-06T21:31:36.955Z,59.73
2019-04-06T21:34:14.483Z,57.62
2019-04-06T21:36:46.242Z,58.80
2019-04-06T21:39:20.101Z,59.50
2019-04-06T21:41:54.258Z,54.63
2019-04-06T21:44:27.847Z,59.05
2019-04-06T21:47:01.486Z,55.33
2019-04-06T21:49:35.676Z,56.10
2019-04-06T21:52:29.426Z,53.75
2019-04-06T21:55:03.985Z,54.95
2019-04-06T21:57:38.752Z,54.65
2019-04-06T22:00:13.083Z,53.28
2019-04-06T22:02:48.970Z,54.65
2019-04-06T22:05:22.869Z,55.48
2019-04-06T22:07:57.252Z,54.13
2019-04-06T22:10:31.493Z,54.60
2019-04-06T22:13:05.999Z,53.80
2019-04-06T22:15:40.390Z,51.48
2019-04-06T22:18:14.654Z,53.38
2019-04-06T22:20:49.058Z,54.50
2019-04-06T22:23:22.983Z,52.13
2019-04-06T22:25:57.766Z,53.35
2019-04-06T22:28:32.251Z,51.58
2019-04-06T22:31:06.518Z,53.13
2019-04-06T22:33:40.809Z,51.48
2019-04-06T22:36:15.094Z,49.75
2019-04-06T22:38:49.187Z,53.80
2019-04-06T22:41:22.844Z,52.33
2019-04-06T22:43:57.217Z,53.20
2019-04-06T22:46:31.552Z,52.03
2019-04-06T22:49:05.591Z,52.13
2019-04-06T22:51:39.971Z,49.75
2019-04-06T22:54:14.380Z,49.42
2019-04-06T22:56:48.543Z,50.03
2019-04-06T22:59:22.467Z,49.67
2019-04-06T23:01:56.450Z,49.00
2019-04-06T23:04:32.034Z,51.08
2019-04-06T23:07:07.532Z,51.30
2019-04-06T23:09:41.741Z,49.27
2019-04-06T23:12:15.635Z,50.25
2019-04-06T23:14:49.266Z,50.30
2019-04-06T23:17:23.086Z,50.73
2019-04-06T23:19:56.885Z,50.28
2019-04-06T23:22:30.984Z,50.73
2019-04-06T23:25:04.998Z,52.78
2019-04-06T23:27:38.816Z,50.15
2019-04-06T23:30:13.371Z,51.00
2019-04-06T23:32:46.854Z,50.88
2019-04-06T23:35:20.939Z,50.08
2019-04-06T23:37:54.952Z,52.43
2019-04-06T23:40:29.462Z,52.17
2019-04-06T23:43:04.014Z,53.20
2019-04-06T23:45:37.910Z,50.38
2019-04-06T23:48:11.990Z,53.17
2019-04-06T23:50:45.440Z,53.30
2019-04-06T23:53:20.352Z,49.83
2019-04-06T23:55:54.448Z,55.73
2019-04-06T23:58:29.593Z,51.37
